createdAt,value
2019-02-27T00:00:12.719Z,13.50
2019-02-27T00:01:18.974Z,13.50
2019-02-27T00:02:25.165Z,13.50
2019-02-27T00:03:31.166Z,13.50
2019-02-27T00:04:35.699Z,13.50
2019-02-27T00:05:41.743Z,13.50
2019-02-27T00:06:47.866Z,13.50
2019-02-27T00:07:54.719Z,13.50
2019-02-27T00:09:00.516Z,13.50
2019-02-27T00:10:07.041Z,13.50
2019-02-27T00:11:12.374Z,13.50
2019-02-27T00:12:19.377Z,13.50
2019-02-27T00:13:24.983Z,13.50
2019-02-27T00:14:31.245Z,13.50
2019-02-27T00:15:38.057Z,13.50
2019-02-27T00:16:44.652Z,13.50
2019-02-27T00:17:51.138Z,13.50
2019-02-27T00:18:58.654Z,13.60
2019-02-27T00:20:03.964Z,13.50
2019-02-27T00:21:10.175Z,13.50
2019-02-27T00:22:17.616Z,13.50
2019-02-27T00:23:23.843Z,13.50
2019-02-27T00:24:29.887Z,13.50
2019-02-27T00:25:35.872Z,13.50
2019-02-27T00:26:42.453Z,13.50
2019-02-27T00:27:49.106Z,13.50
2019-02-27T00:28:55.989Z,13.50
2019-02-27T00:29:59.460Z,13.50
2019-02-27T00:31:04.672Z,13.50
2019-02-27T00:32:09.261Z,13.50
2019-02-27T00:33:13.803Z,13.50
2019-02-27T00:34:18.287Z,13.50
2019-02-27T00:35:22.747Z,13.50
2019-02-27T00:36:27.220Z,13.50
2019-02-27T00:37:31.760Z,13.50
2019-02-27T00:38:36.261Z,13.50
2019-02-27T00:39:40.739Z,13.50
2019-02-27T00:40:45.216Z,13.60
2019-02-27T00:41:49.700Z,13.60
2019-02-27T00:42:54.922Z,13.60
2019-02-27T00:44:01.938Z,13.60
2019-02-27T00:45:08.925Z,13.60
2019-02-27T00:46:14.013Z,13.60
2019-02-27T00:47:20.211Z,13.60
2019-02-27T00:48:26.195Z,13.60
2019-02-27T00:49:32.324Z,13.60
2019-02-27T00:50:39.098Z,13.60
2019-02-27T00:51:44.982Z,13.60
2019-02-27T00:52:51.110Z,13.60
2019-02-27T00:53:58.361Z,13.60
2019-02-27T00:55:04.669Z,13.60
2019-02-27T00:56:11.926Z,13.60
2019-02-27T00:57:15.355Z,13.60
2019-02-27T00:58:21.413Z,13.60
2019-02-27T00:59:25.927Z,13.60
2019-02-27T01:00:30.408Z,13.60
2019-02-27T01:01:34.907Z,13.60
2019-02-27T01:02:39.362Z,13.60
2019-02-27T01:03:43.853Z,13.60
2019-02-27T01:04:48.388Z,13.60
2019-02-27T01:05:52.901Z,13.60
2019-02-27T01:06:57.403Z,13.60
2019-02-27T01:08:02.941Z,13.60
2019-02-27T01:09:08.662Z,13.60
2019-02-27T01:10:13.191Z,13.60
2019-02-27T01:11:18.434Z,13.60
2019-02-27T01:12:25.266Z,13.60
2019-02-27T01:13:31.812Z,13.60
2019-02-27T01:14:37.217Z,13.50
2019-02-27T01:15:44.681Z,13.50
2019-02-27T01:16:50.322Z,13.50
2019-02-27T01:17:55.033Z,13.50
2019-02-27T01:19:02.261Z,13.50
2019-02-27T01:20:11.519Z,13.40
2019-02-27T01:21:19.062Z,13.40
2019-02-27T01:22:22.734Z,13.40
2019-02-27T01:23:27.247Z,13.40
2019-02-27T01:24:31.715Z,13.30
2019-02-27T01:25:36.190Z,13.30
2019-02-27T01:26:40.673Z,13.30
2019-02-27T01:27:45.125Z,13.30
2019-02-27T01:28:49.627Z,13.30
2019-02-27T01:29:54.101Z,13.30
2019-02-27T01:30:58.568Z,13.20
2019-02-27T01:32:03.049Z,13.20
2019-02-27T01:33:07.525Z,13.20
2019-02-27T01:34:12.012Z,13.20
2019-02-27T01:35:18.763Z,13.20
2019-02-27T01:36:24.522Z,13.20
2019-02-27T01:37:31.675Z,13.20
2019-02-27T01:38:37.640Z,13.20
2019-02-27T01:39:41.853Z,13.10
2019-02-27T01:40:49.011Z,13.10
2019-02-27T01:41:55.340Z,13.10
2019-02-27T01:43:00.078Z,13.10
2019-02-27T01:44:04.672Z,13.10
2019-02-27T01:45:12.070Z,13.00
2019-02-27T01:46:16.613Z,13.00
2019-02-27T01:47:21.154Z,13.00
2019-02-27T01:48:25.728Z,13.00
2019-02-27T01:49:30.185Z,13.00
2019-02-27T01:50:36.492Z,13.00
2019-02-27T01:51:41.563Z,13.00
2019-02-27T01:52:47.572Z,13.00
2019-02-27T01:53:52.021Z,13.00
2019-02-27T01:54:56.495Z,13.00
2019-02-27T01:56:00.983Z,13.00
2019-02-27T01:57:05.463Z,13.00
2019-02-27T01:58:10.675Z,13.00
2019-02-27T01:59:16.715Z,13.00
2019-02-27T02:00:23.244Z,13.00
2019-02-27T02:01:30.220Z,12.90
2019-02-27T02:02:34.904Z,12.90
2019-02-27T02:03:39.866Z,12.90
2019-02-27T02:04:44.333Z,12.90
2019-02-27T02:05:48.899Z,12.90
2019-02-27T02:06:53.412Z,12.90
2019-02-27T02:07:57.964Z,13.00
2019-02-27T02:09:11.313Z,12.90
2019-02-27T02:10:16.020Z,12.90
2019-02-27T02:11:20.493Z,12.90
2019-02-27T02:12:25.287Z,12.90
2019-02-27T02:13:38.333Z,12.90
2019-02-27T02:14:45.961Z,12.90
2019-02-27T02:15:58.175Z,12.90
2019-02-27T02:17:11.206Z,12.90
2019-02-27T02:18:37.248Z,12.90
2019-02-27T02:19:48.835Z,12.90
2019-02-27T02:21:02.389Z,12.90
2019-02-27T02:22:14.164Z,12.80
2019-02-27T02:23:41.931Z,12.80
2019-02-27T02:25:10.821Z,12.80
2019-02-27T02:26:45.238Z,12.80
2019-02-27T02:28:07.329Z,12.80
2019-02-27T02:29:34.193Z,12.70
2019-02-27T02:30:44.259Z,12.70
2019-02-27T02:31:51.923Z,12.70
2019-02-27T02:33:29.011Z,12.60
2019-02-27T02:34:44.805Z,12.60
2019-02-27T02:36:18.219Z,12.60
2019-02-27T02:37:51.271Z,12.50
2019-02-27T02:39:06.295Z,12.50
2019-02-27T02:40:32.186Z,12.50
2019-02-27T02:41:46.280Z,12.40
2019-02-27T02:42:54.470Z,12.40
2019-02-27T02:44:14.271Z,12.40
2019-02-27T02:45:24.649Z,12.30
2019-02-27T02:46:56.161Z,12.30
2019-02-27T02:48:03.719Z,12.30
2019-02-27T02:49:32.591Z,12.20
2019-02-27T02:50:56.324Z,12.20
2019-02-27T02:52:09.708Z,12.20
2019-02-27T02:53:24.849Z,12.10
2019-02-27T02:54:36.405Z,12.10
2019-02-27T02:55:41.084Z,12.10
2019-02-27T02:57:05.013Z,12.00
2019-02-27T02:58:24.474Z,12.00
2019-02-27T02:59:48.691Z,12.00
2019-02-27T03:01:15.405Z,12.00
2019-02-27T03:02:23.735Z,12.00
2019-02-27T03:03:37.080Z,11.90
2019-02-27T03:05:23.318Z,11.90
2019-02-27T03:06:38.683Z,11.90
2019-02-27T03:08:01.062Z,11.90
2019-02-27T03:09:30.343Z,11.80
2019-02-27T03:10:42.915Z,11.80
2019-02-27T03:12:08.915Z,11.80
2019-02-27T03:13:41.620Z,11.70
2019-02-27T03:15:16.252Z,11.70
2019-02-27T03:16:42.369Z,11.70
2019-02-27T03:17:54.720Z,11.60
2019-02-27T03:19:18.530Z,11.60
2019-02-27T03:20:35.168Z,11.60
2019-02-27T03:21:48.712Z,11.50
2019-02-27T03:23:24.923Z,11.50
2019-02-27T03:24:47.418Z,11.50
2019-02-27T03:26:16.426Z,11.40
2019-02-27T03:27:35.846Z,11.40
2019-02-27T03:28:45.977Z,11.40
2019-02-27T03:30:33.687Z,11.40
2019-02-27T03:32:00.199Z,11.40
2019-02-27T03:33:24.681Z,11.30
2019-02-27T03:34:51.142Z,11.30
2019-02-27T03:36:07.643Z,11.30
2019-02-27T03:37:15.204Z,11.30
2019-02-27T03:38:47.820Z,11.20
2019-02-27T03:40:10.709Z,11.20
2019-02-27T03:41:28.125Z,11.20
2019-02-27T03:42:55.349Z,11.10
2019-02-27T03:44:20.260Z,11.10
2019-02-27T03:45:30.636Z,11.10
2019-02-27T03:46:51.360Z,11.10
2019-02-27T03:48:01.871Z,11.10
2019-02-27T03:49:12.519Z,11.10
2019-02-27T03:50:25.730Z,11.10
2019-02-27T03:51:42.163Z,11.10
2019-02-27T03:52:58.063Z,11.10
2019-02-27T03:54:08.342Z,11.10
2019-02-27T03:55:34.084Z,11.10
2019-02-27T03:56:59.742Z,11.10
2019-02-27T03:58:33.060Z,11.10
2019-02-27T03:59:52.523Z,11.10
2019-02-27T04:01:17.927Z,11.10
2019-02-27T04:02:38.915Z,11.10
2019-02-27T04:04:15.708Z,11.00
2019-02-27T04:05:29.036Z,11.00
2019-02-27T04:06:36.589Z,11.00
2019-02-27T04:08:08.569Z,11.00
2019-02-27T04:09:10.002Z,11.00
2019-02-27T04:10:14.487Z,11.00
2019-02-27T04:11:19.044Z,10.90
2019-02-27T04:12:23.524Z,10.90
2019-02-27T04:13:27.993Z,10.90
2019-02-27T04:14:40.085Z,10.90
2019-02-27T04:15:40.324Z,10.90
2019-02-27T04:16:44.822Z,10.90
2019-02-27T04:17:51.984Z,10.90
2019-02-27T04:18:54.427Z,10.90
2019-02-27T04:19:58.884Z,10.90
2019-02-27T04:21:03.387Z,10.90
2019-02-27T04:22:08.022Z,10.90
2019-02-27T04:23:12.860Z,10.90
2019-02-27T04:24:22.243Z,10.90
2019-02-27T04:25:23.668Z,10.90
2019-02-27T04:26:28.169Z,10.90
2019-02-27T04:27:32.726Z,10.90
2019-02-27T04:28:37.218Z,10.90
2019-02-27T04:29:41.989Z,10.90
2019-02-27T04:30:51.112Z,10.90
2019-02-27T04:31:52.923Z,10.90
2019-02-27T04:32:57.496Z,10.90
2019-02-27T04:34:01.969Z,10.90
2019-02-27T04:35:07.817Z,10.90
2019-02-27T04:36:12.849Z,10.90
2019-02-27T04:37:20.355Z,10.80
2019-02-27T04:38:25.012Z,10.80
2019-02-27T04:39:30.501Z,10.80
2019-02-27T04:40:34.988Z,10.80
2019-02-27T04:41:39.469Z,10.80
2019-02-27T04:42:43.953Z,10.70
2019-02-27T04:43:48.440Z,10.70
2019-02-27T04:44:52.924Z,10.70
2019-02-27T04:45:57.407Z,10.70
2019-02-27T04:47:01.953Z,10.70
2019-02-27T04:48:06.613Z,10.70
2019-02-27T04:49:11.166Z,10.70
2019-02-27T04:50:17.034Z,10.60
2019-02-27T04:51:21.516Z,10.60
2019-02-27T04:52:26.072Z,10.60
2019-02-27T04:53:31.987Z,10.60
2019-02-27T04:54:41.234Z,10.60
2019-02-27T04:55:42.933Z,10.60
2019-02-27T04:56:48.951Z,10.60
2019-02-27T04:57:53.496Z,10.60
2019-02-27T04:58:57.977Z,10.60
2019-02-27T05:00:02.451Z,10.60
2019-02-27T05:01:06.923Z,10.60
2019-02-27T05:02:12.094Z,10.60
2019-02-27T05:03:17.565Z,10.60
2019-02-27T05:04:22.057Z,10.50
2019-02-27T05:05:26.848Z,10.60
2019-02-27T05:06:31.528Z,10.50
2019-02-27T05:07:35.993Z,10.50
2019-02-27T05:08:40.504Z,10.50
2019-02-27T05:09:45.036Z,10.50
2019-02-27T05:10:49.839Z,10.50
2019-02-27T05:11:54.318Z,10.50
2019-02-27T05:12:58.816Z,10.50
2019-02-27T05:14:03.418Z,10.50
2019-02-27T05:15:08.931Z,10.50
2019-02-27T05:16:14.190Z,10.50
2019-02-27T05:17:21.510Z,10.50
2019-02-27T05:18:29.246Z,10.50
2019-02-27T05:19:36.867Z,10.50
2019-02-27T05:20:39.273Z,10.50
2019-02-27T05:21:45.129Z,10.50
2019-02-27T05:22:49.707Z,10.50
2019-02-27T05:23:54.181Z,10.50
2019-02-27T05:24:58.655Z,10.50
2019-02-27T05:26:03.117Z,10.50
2019-02-27T05:27:07.697Z,10.50
2019-02-27T05:28:12.235Z,10.50
2019-02-27T05:29:16.779Z,10.50
2019-02-27T05:30:21.259Z,10.50
2019-02-27T05:31:25.807Z,10.50
2019-02-27T05:32:30.329Z,10.50
2019-02-27T05:33:36.510Z,10.50
2019-02-27T05:34:41.313Z,10.50
2019-02-27T05:35:45.775Z,10.40
2019-02-27T05:36:50.281Z,10.50
2019-02-27T05:37:54.764Z,10.40
2019-02-27T05:38:59.238Z,10.40
2019-02-27T05:40:05.447Z,10.40
2019-02-27T05:41:09.939Z,10.40
2019-02-27T05:42:14.428Z,10.40
2019-02-27T05:43:22.533Z,10.30
2019-02-27T05:44:27.002Z,10.30
2019-02-27T05:45:32.589Z,10.30
2019-02-27T05:46:38.314Z,10.30
2019-02-27T05:47:45.781Z,10.30
2019-02-27T05:48:50.965Z,10.30
2019-02-27T05:49:57.936Z,10.20
2019-02-27T05:51:02.238Z,10.20
2019-02-27T05:52:06.733Z,10.20
2019-02-27T05:53:11.217Z,10.20
2019-02-27T05:54:15.680Z,10.20
2019-02-27T05:55:20.286Z,10.10
2019-02-27T05:56:24.767Z,10.10
2019-02-27T05:57:31.335Z,10.10
2019-02-27T05:58:35.458Z,10.10
2019-02-27T05:59:39.918Z,10.10
2019-02-27T06:00:44.420Z,10.10
2019-02-27T06:01:48.892Z,10.10
2019-02-27T06:02:53.376Z,10.10
2019-02-27T06:03:58.031Z,10.10
2019-02-27T06:05:02.504Z,10.10
2019-02-27T06:06:11.497Z,10.10
2019-02-27T06:07:13.176Z,10.10
2019-02-27T06:08:18.861Z,10.10
2019-02-27T06:09:23.747Z,10.10
2019-02-27T06:10:28.219Z,10.10
2019-02-27T06:11:33.174Z,10.00
2019-02-27T06:12:38.149Z,10.10
2019-02-27T06:13:45.043Z,10.10
2019-02-27T06:14:54.824Z,10.10
2019-02-27T06:15:56.426Z,10.10
2019-02-27T06:17:00.914Z,10.00
2019-02-27T06:18:05.398Z,10.00
2019-02-27T06:19:09.858Z,10.00
2019-02-27T06:20:14.569Z,10.00
2019-02-27T06:21:19.047Z,10.00
2019-02-27T06:22:30.045Z,10.00
2019-02-27T06:23:31.229Z,10.00
2019-02-27T06:24:35.709Z,10.00
2019-02-27T06:25:40.191Z,10.00
2019-02-27T06:26:44.663Z,9.90
2019-02-27T06:27:49.194Z,9.90
2019-02-27T06:28:53.662Z,9.90
2019-02-27T06:29:59.741Z,9.90
2019-02-27T06:31:04.286Z,9.90
2019-02-27T06:32:11.930Z,9.90
2019-02-27T06:33:14.903Z,9.90
2019-02-27T06:34:19.393Z,9.90
2019-02-27T06:35:23.955Z,9.90
2019-02-27T06:36:28.430Z,9.90
2019-02-27T06:37:32.873Z,9.90
2019-02-27T06:38:37.364Z,9.90
2019-02-27T06:39:41.908Z,9.90
2019-02-27T06:40:46.468Z,9.90
2019-02-27T06:41:51.033Z,10.00
2019-02-27T06:42:56.867Z,10.00
2019-02-27T06:44:02.219Z,10.00
2019-02-27T06:45:10.245Z,10.00
2019-02-27T06:46:19.670Z,10.00
2019-02-27T06:47:21.980Z,10.00
2019-02-27T06:48:26.481Z,10.00
2019-02-27T06:49:32.607Z,10.00
2019-02-27T06:50:37.195Z,10.00
2019-02-27T06:51:41.691Z,10.10
2019-02-27T06:52:46.221Z,10.10
2019-02-27T06:53:50.722Z,10.10
2019-02-27T06:54:55.255Z,10.10
2019-02-27T06:56:02.984Z,10.10
2019-02-27T06:57:07.810Z,10.10
2019-02-27T06:58:14.853Z,10.10
2019-02-27T06:59:18.647Z,10.10
2019-02-27T07:00:26.129Z,10.10
2019-02-27T07:01:30.855Z,10.10
2019-02-27T07:02:35.502Z,10.10
2019-02-27T07:03:39.973Z,10.10
2019-02-27T07:04:44.457Z,10.10
2019-02-27T07:05:49.024Z,10.10
2019-02-27T07:06:55.460Z,10.10
2019-02-27T07:08:02.183Z,10.10
2019-02-27T07:09:11.435Z,10.10
2019-02-27T07:10:19.388Z,10.10
2019-02-27T07:11:22.059Z,10.10
2019-02-27T07:12:26.673Z,10.10
2019-02-27T07:13:31.139Z,10.10
2019-02-27T07:14:36.498Z,10.10
2019-02-27T07:15:41.971Z,10.10
2019-02-27T07:16:46.455Z,10.10
2019-02-27T07:17:50.977Z,10.10
2019-02-27T07:18:55.658Z,10.10
2019-02-27T07:20:00.282Z,10.10
2019-02-27T07:21:04.930Z,10.20
2019-02-27T07:22:12.522Z,10.20
2019-02-27T07:23:15.616Z,10.20
2019-02-27T07:24:20.088Z,10.20
2019-02-27T07:25:24.644Z,10.30
2019-02-27T07:26:38.035Z,10.30
2019-02-27T07:27:42.495Z,10.30
2019-02-27T07:28:46.986Z,10.30
2019-02-27T07:29:51.471Z,10.30
2019-02-27T07:30:55.950Z,10.40
2019-02-27T07:32:00.398Z,10.40
2019-02-27T07:33:06.748Z,10.40
2019-02-27T07:34:14.211Z,10.40
2019-02-27T07:35:17.556Z,10.50
2019-02-27T07:36:22.134Z,10.50
2019-02-27T07:37:26.630Z,10.50
2019-02-27T07:38:31.098Z,10.50
2019-02-27T07:39:35.578Z,10.60
2019-02-27T07:40:42.732Z,10.60
2019-02-27T07:41:46.251Z,10.60
2019-02-27T07:42:50.726Z,10.70
2019-02-27T07:43:55.191Z,10.70
2019-02-27T07:44:59.683Z,10.70
2019-02-27T07:46:04.175Z,10.80
2019-02-27T07:47:08.681Z,10.80
2019-02-27T07:48:13.255Z,10.80
2019-02-27T07:49:17.808Z,10.90
2019-02-27T07:50:22.456Z,10.90
2019-02-27T07:51:27.065Z,10.90
2019-02-27T07:52:32.505Z,10.90
2019-02-27T07:53:37.891Z,11.00
2019-02-27T07:54:42.367Z,11.00
2019-02-27T07:55:48.054Z,11.00
2019-02-27T07:56:52.573Z,11.00
2019-02-27T07:57:58.781Z,11.10
2019-02-27T07:59:03.267Z,11.10
2019-02-27T08:00:16.467Z,11.10
2019-02-27T08:01:23.522Z,11.20
2019-02-27T08:02:27.322Z,11.20
2019-02-27T08:03:31.854Z,11.20
2019-02-27T08:04:36.315Z,11.20
2019-02-27T08:05:40.879Z,11.30
2019-02-27T08:06:45.384Z,11.30
2019-02-27T08:07:50.026Z,11.30
2019-02-27T08:08:56.892Z,11.30
2019-02-27T08:10:04.585Z,11.40
2019-02-27T08:11:07.069Z,11.40
2019-02-27T08:12:11.531Z,11.40
2019-02-27T08:13:16.006Z,11.50
2019-02-27T08:14:20.462Z,11.50
2019-02-27T08:15:25.486Z,11.50
2019-02-27T08:16:30.285Z,11.50
2019-02-27T08:17:34.752Z,11.60
2019-02-27T08:18:39.225Z,11.60
2019-02-27T08:19:45.267Z,11.60
2019-02-27T08:20:52.057Z,11.70
2019-02-27T08:21:56.143Z,11.70
2019-02-27T08:23:00.693Z,11.70
2019-02-27T08:24:07.449Z,11.80
2019-02-27T08:25:15.497Z,11.80
2019-02-27T08:26:20.014Z,11.80
2019-02-27T08:27:24.611Z,11.80
2019-02-27T08:28:29.188Z,11.90
2019-02-27T08:29:33.717Z,11.90
2019-02-27T08:30:38.256Z,11.90
2019-02-27T08:31:42.836Z,12.00
2019-02-27T08:32:47.369Z,12.00
2019-02-27T08:33:51.885Z,12.00
2019-02-27T08:34:56.460Z,12.00
2019-02-27T08:36:00.916Z,12.00
2019-02-27T08:37:05.542Z,12.10
2019-02-27T08:38:10.051Z,12.10
2019-02-27T08:39:14.638Z,12.10
2019-02-27T08:40:19.157Z,12.10
2019-02-27T08:41:23.713Z,12.20
2019-02-27T08:42:28.340Z,12.20
2019-02-27T08:43:32.904Z,12.30
2019-02-27T08:44:37.388Z,12.30
2019-02-27T08:45:41.852Z,12.30
2019-02-27T08:46:46.413Z,12.40
2019-02-27T08:47:50.992Z,12.40
2019-02-27T08:48:55.485Z,12.40
2019-02-27T08:49:59.982Z,12.50
2019-02-27T08:52:13.091Z,12.60
2019-02-27T08:53:16.869Z,12.70
2019-02-27T08:54:21.349Z,12.80
2019-02-27T08:55:28.782Z,12.90
2019-02-27T08:56:33.345Z,13.10
2019-02-27T08:57:37.928Z,13.30
2019-02-27T08:58:42.531Z,13.50
2019-02-27T08:59:47.563Z,13.70
2019-02-27T09:00:52.130Z,13.90
2019-02-27T09:01:56.763Z,14.20
2019-02-27T09:03:02.877Z,14.40
2019-02-27T09:04:11.525Z,14.70
2019-02-27T09:05:14.134Z,15.00
2019-02-27T09:06:18.809Z,15.30
2019-02-27T09:07:23.333Z,15.60
2019-02-27T09:08:31.237Z,15.90
2019-02-27T09:09:36.130Z,16.20
2019-02-27T09:10:40.229Z,16.50
2019-02-27T09:11:44.796Z,16.70
2019-02-27T09:12:51.654Z,17.00
2019-02-27T09:13:55.469Z,17.20
2019-02-27T09:14:59.942Z,17.40
2019-02-27T09:16:04.445Z,17.50
2019-02-27T09:17:08.983Z,17.60
2019-02-27T09:18:13.453Z,17.70
2019-02-27T09:19:17.941Z,17.70
2019-02-27T09:20:22.491Z,17.70
2019-02-27T09:21:28.027Z,17.70
2019-02-27T09:22:33.831Z,17.70
2019-02-27T09:23:39.273Z,17.70
2019-02-27T09:24:43.751Z,17.60
2019-02-27T09:25:48.960Z,17.60
2019-02-27T09:26:54.466Z,17.50
2019-02-27T09:27:58.952Z,17.50
2019-02-27T09:29:03.618Z,17.40
2019-02-27T09:30:19.073Z,17.30
2019-02-27T09:31:23.652Z,17.30
2019-02-27T09:32:28.267Z,17.20
2019-02-27T09:33:38.543Z,17.10
2019-02-27T09:34:38.925Z,17.10
2019-02-27T09:35:43.478Z,17.00
2019-02-27T09:36:49.151Z,17.00
2019-02-27T09:37:53.803Z,16.90
2019-02-27T09:38:58.313Z,16.90
2019-02-27T09:40:05.754Z,16.90
2019-02-27T09:41:12.147Z,16.90
2019-02-27T09:42:18.765Z,16.90
2019-02-27T09:43:24.112Z,16.90
2019-02-27T09:44:27.795Z,17.00
2019-02-27T09:45:36.870Z,17.00
2019-02-27T09:46:41.317Z,17.10
2019-02-27T09:47:45.865Z,17.20
2019-02-27T09:48:50.408Z,17.30
2019-02-27T09:49:54.979Z,17.50
2019-02-27T09:50:59.472Z,17.70
2019-02-27T09:52:03.931Z,17.90
2019-02-27T09:53:08.417Z,18.10
2019-02-27T09:54:13.289Z,18.40
2019-02-27T09:55:20.297Z,18.60
2019-02-27T09:56:26.091Z,19.00
2019-02-27T09:57:32.917Z,19.30
2019-02-27T09:58:37.303Z,19.70
2019-02-27T09:59:43.425Z,20.10
2019-02-27T10:00:53.615Z,20.40
2019-02-27T10:01:58.243Z,20.90
2019-02-27T10:03:02.888Z,21.30
2019-02-27T10:04:07.459Z,21.70
2019-02-27T10:05:12.491Z,22.10
2019-02-27T10:06:17.057Z,22.50
2019-02-27T10:07:21.545Z,22.90
2019-02-27T10:08:26.233Z,23.30
2019-02-27T10:09:34.485Z,23.70
2019-02-27T10:10:37.059Z,24.10
2019-02-27T10:11:41.767Z,24.50
2019-02-27T10:12:46.257Z,24.90
2019-02-27T10:13:50.831Z,25.20
2019-02-27T10:14:55.389Z,25.60
2019-02-27T10:16:01.354Z,25.90
2019-02-27T10:17:06.785Z,26.20
2019-02-27T10:18:12.425Z,26.60
2019-02-27T10:19:17.209Z,26.90
2019-02-27T10:20:21.809Z,27.20
2019-02-27T10:21:26.274Z,27.50
2019-02-27T10:22:30.770Z,27.80
2019-02-27T10:23:35.258Z,28.00
2019-02-27T10:24:39.820Z,28.30
2019-02-27T10:25:44.317Z,28.50
2019-02-27T10:26:48.797Z,28.80
2019-02-27T10:27:53.286Z,29.00
2019-02-27T10:28:57.768Z,29.20
2019-02-27T10:30:11.176Z,29.40
2019-02-27T10:31:08.422Z,29.60
2019-02-27T10:32:12.893Z,29.80
2019-02-27T10:33:17.356Z,30.00
2019-02-27T10:34:21.876Z,30.20
2019-02-27T10:35:29.265Z,30.40
2019-02-27T10:36:32.920Z,30.50
2019-02-27T10:37:37.634Z,30.70
2019-02-27T10:38:42.192Z,30.90
2019-02-27T10:39:46.641Z,31.00
2019-02-27T10:40:51.157Z,31.20
2019-02-27T10:41:55.619Z,31.30
2019-02-27T10:43:00.515Z,31.50
2019-02-27T10:44:04.983Z,31.60
2019-02-27T10:45:11.627Z,31.80
2019-02-27T10:46:16.127Z,31.90
2019-02-27T10:47:20.697Z,32.10
2019-02-27T10:48:25.193Z,32.30
2019-02-27T10:49:29.651Z,32.40
2019-02-27T10:50:35.498Z,32.60
2019-02-27T10:51:41.562Z,32.70
2019-02-27T10:52:46.632Z,32.90
2019-02-27T10:53:51.137Z,33.00
2019-02-27T10:54:55.585Z,33.20
2019-02-27T10:56:00.071Z,33.30
2019-02-27T10:57:05.955Z,33.40
2019-02-27T10:58:13.062Z,33.50
2019-02-27T10:59:21.810Z,33.60
2019-02-27T11:00:26.807Z,33.70
2019-02-27T11:01:33.228Z,33.80
2019-02-27T11:02:37.576Z,33.90
2019-02-27T11:03:42.119Z,33.90
2019-02-27T11:04:46.606Z,34.10
2019-02-27T11:05:54.165Z,34.20
2019-02-27T11:06:57.352Z,34.20
2019-02-27T11:08:02.305Z,34.30
2019-02-27T11:09:09.924Z,34.40
2019-02-27T11:10:14.946Z,34.50
2019-02-27T11:11:19.760Z,34.60
2019-02-27T11:13:28.662Z,34.70
2019-02-27T11:14:33.608Z,34.70
2019-02-27T11:15:41.164Z,34.80
2019-02-27T11:16:44.355Z,34.90
2019-02-27T11:17:48.801Z,34.90
2019-02-27T11:18:53.304Z,35.00
2019-02-27T11:19:57.900Z,35.00
2019-02-27T11:21:02.479Z,35.10
2019-02-27T11:22:06.954Z,35.20
2019-02-27T11:23:11.530Z,35.30
2019-02-27T11:24:17.304Z,35.40
2019-02-27T11:25:24.749Z,35.50
2019-02-27T11:26:33.218Z,35.50
2019-02-27T11:27:36.363Z,35.70
2019-02-27T11:28:45.240Z,35.70
2019-02-27T11:29:47.949Z,35.80
2019-02-27T11:30:52.529Z,35.90
2019-02-27T11:31:57.060Z,36.00
2019-02-27T11:33:01.548Z,36.10
2019-02-27T11:34:07.933Z,36.20
2019-02-27T11:35:12.686Z,36.30
2019-02-27T11:36:17.367Z,36.40
2019-02-27T11:37:21.937Z,36.50
2019-02-27T11:38:26.502Z,36.60
2019-02-27T11:39:32.918Z,36.70
2019-02-27T11:40:41.568Z,36.80
2019-02-27T11:41:46.073Z,36.80
2019-02-27T11:42:49.689Z,36.90
2019-02-27T11:43:54.169Z,37.00
2019-02-27T11:44:58.663Z,37.10
2019-02-27T11:46:03.141Z,37.10
2019-02-27T11:47:10.943Z,37.30
2019-02-27T11:48:15.417Z,37.30
2019-02-27T11:49:19.933Z,37.40
2019-02-27T11:50:24.457Z,37.50
2019-02-27T11:51:29.251Z,37.60
2019-02-27T11:52:33.729Z,37.60
2019-02-27T11:53:38.282Z,37.70
2019-02-27T11:54:43.817Z,37.80
2019-02-27T11:55:48.449Z,37.90
2019-02-27T11:56:56.180Z,37.90
2019-02-27T11:57:59.138Z,38.00
2019-02-27T11:59:05.501Z,38.10
2019-02-27T12:00:13.688Z,38.10
2019-02-27T12:01:21.865Z,38.10
2019-02-27T12:02:29.083Z,38.20
2019-02-27T12:03:31.003Z,38.20
2019-02-27T12:04:35.563Z,38.20
2019-02-27T12:05:40.060Z,38.30
2019-02-27T12:06:44.676Z,38.30
2019-02-27T12:07:51.249Z,38.40
2019-02-27T12:08:59.514Z,38.40
2019-02-27T12:10:02.300Z,38.50
2019-02-27T12:11:06.926Z,38.50
2019-02-27T12:12:11.640Z,38.50
2019-02-27T12:13:16.119Z,38.60
2019-02-27T12:14:20.603Z,38.60
2019-02-27T12:15:27.068Z,38.60
2019-02-27T12:17:35.373Z,38.70
2019-02-27T12:18:39.833Z,38.70
2019-02-27T12:19:45.325Z,38.70
2019-02-27T12:20:53.212Z,38.80
2019-02-27T12:21:59.452Z,38.80
2019-02-27T12:23:04.039Z,38.80
2019-02-27T12:24:08.545Z,38.90
2019-02-27T12:25:17.317Z,38.90
2019-02-27T12:26:21.967Z,38.90
2019-02-27T12:27:47.915Z,38.90
2019-02-27T12:28:32.962Z,39.00
2019-02-27T12:29:37.467Z,39.00
2019-02-27T12:30:42.058Z,39.00
2019-02-27T12:31:48.365Z,39.00
2019-02-27T12:32:56.033Z,39.00
2019-02-27T12:34:02.515Z,39.00
2019-02-27T12:35:10.871Z,39.10
2019-02-27T12:36:16.068Z,39.00
2019-02-27T12:37:28.248Z,39.00
2019-02-27T12:38:28.784Z,39.00
2019-02-27T12:39:33.460Z,39.10
2019-02-27T12:40:38.092Z,39.10
2019-02-27T12:41:42.635Z,39.10
2019-02-27T12:42:47.190Z,39.10
2019-02-27T12:43:52.665Z,39.20
2019-02-27T12:44:57.936Z,39.20
2019-02-27T12:46:02.429Z,39.30
2019-02-27T12:47:06.930Z,39.40
2019-02-27T12:48:13.342Z,39.40
2019-02-27T12:50:26.921Z,39.50
2019-02-27T12:51:32.093Z,39.60
2019-02-27T12:52:36.581Z,39.60
2019-02-27T12:53:42.470Z,39.60
2019-02-27T12:54:48.458Z,39.70
2019-02-27T12:55:53.062Z,39.70
2019-02-27T12:56:57.526Z,39.70
2019-02-27T12:58:02.033Z,39.70
2019-02-27T12:59:06.624Z,39.80
2019-02-27T13:00:19.905Z,39.80
2019-02-27T13:01:24.398Z,39.80
2019-02-27T13:02:35.670Z,39.90
2019-02-27T13:03:35.133Z,39.90
2019-02-27T13:04:39.594Z,39.90
2019-02-27T13:05:44.085Z,40.00
2019-02-27T13:06:48.589Z,40.10
2019-02-27T13:07:53.157Z,40.10
2019-02-27T13:08:57.734Z,40.10
2019-02-27T13:10:02.663Z,40.20
2019-02-27T13:11:07.972Z,40.20
2019-02-27T13:12:14.901Z,40.20
2019-02-27T13:13:19.404Z,40.30
2019-02-27T13:14:23.902Z,40.30
2019-02-27T13:15:31.274Z,40.30
2019-02-27T13:16:35.747Z,40.30
2019-02-27T13:17:40.240Z,40.30
2019-02-27T13:18:46.451Z,40.30
2019-02-27T13:19:51.083Z,40.40
2019-02-27T13:20:55.655Z,40.40
2019-02-27T13:22:00.228Z,40.40
2019-02-27T13:23:05.461Z,40.40
2019-02-27T13:24:10.178Z,40.50
2019-02-27T13:25:14.669Z,40.50
2019-02-27T13:26:19.151Z,40.50
2019-02-27T13:27:25.171Z,40.50
2019-02-27T13:28:29.808Z,40.60
2019-02-27T13:29:34.499Z,40.70
2019-02-27T13:30:41.611Z,40.70
2019-02-27T13:31:48.318Z,40.80
2019-02-27T13:32:52.124Z,40.80
2019-02-27T13:33:56.639Z,40.80
2019-02-27T13:35:01.147Z,40.90
2019-02-27T13:36:05.689Z,40.90
2019-02-27T13:37:10.420Z,40.90
2019-02-27T13:38:17.699Z,41.00
2019-02-27T13:39:25.350Z,41.00
2019-02-27T13:40:28.837Z,41.10
2019-02-27T13:41:33.658Z,41.10
2019-02-27T13:42:38.292Z,41.10
2019-02-27T13:43:42.828Z,41.10
2019-02-27T13:44:47.306Z,41.10
2019-02-27T13:45:52.116Z,41.10
2019-02-27T13:46:57.054Z,41.10
2019-02-27T13:48:05.311Z,41.10
2019-02-27T13:49:08.489Z,41.10
2019-02-27T13:50:14.011Z,41.10
2019-02-27T13:51:18.500Z,41.00
2019-02-27T13:52:22.983Z,41.00
2019-02-27T13:53:27.468Z,41.00
2019-02-27T13:54:35.108Z,40.90
2019-02-27T13:55:38.157Z,40.90
2019-02-27T13:56:42.681Z,40.90
2019-02-27T13:57:47.322Z,40.90
2019-02-27T13:58:51.807Z,40.90
2019-02-27T13:59:56.319Z,40.90
2019-02-27T14:01:00.851Z,40.90
2019-02-27T14:02:05.597Z,40.80
2019-02-27T14:03:12.771Z,40.80
2019-02-27T14:04:19.483Z,40.80
2019-02-27T14:05:22.930Z,40.80
2019-02-27T14:06:27.444Z,40.80
2019-02-27T14:07:32.040Z,40.80
2019-02-27T14:08:36.517Z,40.80
2019-02-27T14:09:41.555Z,40.70
2019-02-27T14:10:46.744Z,40.70
2019-02-27T14:11:51.267Z,40.70
2019-02-27T14:12:56.011Z,40.60
2019-02-27T14:14:00.634Z,40.50
2019-02-27T14:15:08.321Z,40.50
2019-02-27T14:16:12.869Z,40.40
2019-02-27T14:17:17.364Z,40.30
2019-02-27T14:18:21.952Z,40.20
2019-02-27T14:19:26.768Z,40.10
2019-02-27T14:20:31.481Z,39.90
2019-02-27T14:21:36.272Z,39.80
2019-02-27T14:22:41.478Z,39.60
2019-02-27T14:23:47.096Z,39.50
2019-02-27T14:24:54.817Z,39.30
2019-02-27T14:25:59.025Z,39.10
2019-02-27T14:27:03.795Z,38.90